Time,TemperatureF,DewpointF,PressureIn,WindDirection,WindDirectionDegrees,WindSpeedMPH,WindSpeedGustMPH,Humidity,HourlyPrecipIn,Conditions,Clouds,dailyrainin,SoftwareType,DateUTC
2013-02-16 00:27:00,45.7,42.6,30.03,North,0,4.0,4.0,89,0.00,,OVC,0.00,WUHU21623XXSP,2013-02-15 22:27:00,
2013-02-16 01:27:00,45.1,42.3,30.03,North,0,3.0,3.0,90,0.00,,OVC,0.00,WUHU21623XXSP,2013-02-15 23:27:00,
2013-02-16 02:27:00,45.9,42.5,30.03,North,0,2.4,2.4,88,0.00,,OVC,0.00,WUHU21623XXSP,2013-02-16 00:27:00,
2013-02-16 03:27:00,46.0,42.3,30.04,NE,45,0.0,0.0,87,0.00,,OVC,0.00,WUHU21623XXSP,2013-02-16 01:27:00,
2013-02-16 04:27:00,47.1,43.1,30.04,NNE,23,0.0,0.0,86,0.00,,OVC,0.00,WUHU21623XXSP,2013-02-16 02:27:00,
2013-02-16 05:27:00,46.6,42.6,30.03,NNE,23,2.8,2.8,86,0.00,,OVC,0.00,WUHU21623XXSP,2013-02-16 03:27:00,
2013-02-16 06:27:00,47.7,43.7,30.04,NNE,23,0.0,0.0,86,0.00,,OVC,0.00,WUHU21623XXSP,2013-02-16 04:27:00,
2013-02-16 07:27:00,47.8,43.5,30.05,NE,45,0.0,0.0,85,0.00,,OVC,0.00,WUHU21623XXSP,2013-02-16 05:27:00,
2013-02-16 08:27:00,50.0,44.4,30.06,NNE,23,2.4,2.4,81,0.00,,OVC,0.00,WUHU21623XXSP,2013-02-16 06:27:00,
2013-02-16 08:43:00,50.4,43.9,30.06,NNE,22,2.4,2.4,78,0.00,,OVC,0.00,WUHU21623XXSP,2013-02-16 06:43:00,
2013-02-16 08:44:00,50.4,43.9,30.06,ENE,67,2.8,4.0,78,0.00,,OVC,0.00,WUHU21623XXSP,2013-02-16 06:44:00,
2013-02-16 08:45:00,50.4,43.9,30.06,NNE,22,0.0,4.0,78,0.00,,OVC,0.00,WUHU21623XXSP,2013-02-16 06:45:00,
2013-02-16 08:58:00,50.4,43.2,30.06,North,0,2.8,2.8,76,0.00,,OVC,0.00,WUHU21623XXSP,2013-02-16 06:58:00,
2013-02-16 09:03:00,50.5,43.3,30.05,North,0,2.4,6.4,76,0.00,,OVC,0.00,WUHU21623XXSP,2013-02-16 07:03:00,
2013-02-16 09:08:00,50.5,43.3,30.06,NNE,22,1.0,6.4,76,0.00,,OVC,0.00,WUHU21623XXSP,2013-02-16 07:08:00,
2013-02-16 09:13:00,50.5,43.3,30.06,NNE,22,0.0,5.6,76,0.00,,OVC,0.00,WUHU21623XXSP,2013-02-16 07:13:00,
2013-02-16 09:18:00,50.7,43.5,30.06,NE,45,2.4,5.6,76,0.00,,OVC,0.00,WUHU21623XXSP,2013-02-16 07:18:00,
2013-02-16 09:23:00,50.9,43.3,30.05,NE,45,1.4,5.6,75,0.00,,OVC,0.00,WUHU21623XXSP,2013-02-16 07:23:00,
2013-02-16 09:28:00,51.4,43.5,30.05,North,0,0.0,5.4,74,0.00,,OVC,0.00,WUHU21623XXSP,2013-02-16 07:28:00,
2013-02-16 09:33:00,52.0,44.1,30.05,NE,45,0.0,5.4,74,0.00,,OVC,0.00,WUHU21623XXSP,2013-02-16 07:33:00,
2013-02-16 09:38:00,52.2,43.9,30.06,North,0,4.4,4.4,73,0.00,,OVC,0.00,WUHU21623XXSP,2013-02-16 07:38:00,
2013-02-16 09:43:00,52.3,43.6,30.06,NNE,22,2.8,6.9,72,0.00,,OVC,0.00,WUHU21623XXSP,2013-02-16 07:43:00,
2013-02-16 09:48:00,52.3,43.3,30.06,North,0,2.4,7.9,71,0.00,,OVC,0.00,WUHU21623XXSP,2013-02-16 07:48:00,
2013-02-16 09:53:00,52.3,43.3,30.06,NNE,22,3.4,7.9,71,0.00,,OVC,0.00,WUHU21623XXSP,2013-02-16 07:53:00,
2013-02-16 09:58:00,52.7,43.3,30.06,ENE,67,0.8,5.9,70,0.00,,OVC,0.00,WUHU21623XXSP,2013-02-16 07:58:00,
2013-02-16 10:03:00,53.1,42.9,30.06,North,0,4.2,6.2,68,0.00,,OVC,0.00,WUHU21623XXSP,2013-02-16 08:03:00,
2013-02-16 10:08:00,53.6,43.0,30.06,NNE,22,1.4,6.2,67,0.00,,OVC,0.00,WUHU21623XXSP,2013-02-16 08:08:00,
2013-02-16 10:13:00,53.8,42.8,30.06,North,0,0.0,4.7,66,0.00,,OVC,0.00,WUHU21623XXSP,2013-02-16 08:13:00,
2013-02-16 10:18:00,53.8,42.4,30.06,NE,45,0.0,4.4,65,0.00,,OVC,0.00,WUHU21623XXSP,2013-02-16 08:18:00,
2013-02-16 10:23:00,53.6,42.2,30.06,NE,45,0.0,4.4,65,0.00,,OVC,0.00,WUHU21623XXSP,2013-02-16 08:23:00,
2013-02-16 10:28:00,53.6,42.2,30.06,ENE,67,0.0,5.2,65,0.00,,OVC,0.00,WUHU21623XXSP,2013-02-16 08:28:00,
2013-02-16 10:33:00,53.4,42.0,30.06,East,90,0.0,5.2,65,0.00,,OVC,0.00,WUHU21623XXSP,2013-02-16 08:33:00,
2013-02-16 10:38:00,53.6,42.2,30.06,NNE,22,0.0,2.2,65,0.00,,OVC,0.00,WUHU21623XXSP,2013-02-16 08:38:00,
2013-02-16 10:43:00,53.6,42.6,30.06,NNE,22,0.0,3.0,66,0.00,,OVC,0.00,WUHU21623XXSP,2013-02-16 08:43:00,
2013-02-16 10:48:00,53.8,43.2,30.05,ENE,67,0.0,4.4,67,0.00,,OVC,0.00,WUHU21623XXSP,2013-02-16 08:48:00,
2013-02-16 10:53:00,54.0,43.4,30.06,North,0,0.0,4.4,67,0.00,,OVC,0.00,WUHU21623XXSP,2013-02-16 08:53:00,
2013-02-16 10:58:00,54.1,43.1,30.06,NNE,22,0.0,4.7,66,0.00,,OVC,0.00,WUHU21623XXSP,2013-02-16 08:58:00,
2013-02-16 11:03:00,54.5,43.5,30.06,SE,135,0.0,4.9,66,0.00,,OVC,0.00,WUHU21623XXSP,2013-02-16 09:03:00,
2013-02-16 11:08:00,54.5,43.1,30.06,North,0,0.0,4.9,65,0.00,,OVC,0.00,WUHU21623XXSP,2013-02-16 09:08:00,
2013-02-16 11:13:00,54.3,42.9,30.06,North,0,1.2,4.4,65,0.00,,OVC,0.00,WUHU21623XXSP,2013-02-16 09:13:00,
2013-02-16 11:18:00,54.3,42.9,30.06,NNE,22,0.0,3.2,65,0.00,,OVC,0.00,WUHU21623XXSP,2013-02-16 09:18:00,
2013-02-16 11:23:00,54.5,43.1,30.06,NNE,22,2.0,5.2,65,0.00,,OVC,0.00,WUHU21623XXSP,2013-02-16 09:23:00,
2013-02-16 11:28:00,55.0,43.6,30.06,NNE,22,2.0,5.2,65,0.00,,OVC,0.00,WUHU21623XXSP,2013-02-16 09:28:00,
2013-02-16 11:33:00,55.4,43.1,30.06,NNE,22,1.8,3.4,63,0.00,,OVC,0.00,WUHU21623XXSP,2013-02-16 09:33:00,
2013-02-16 11:38:00,55.2,42.5,30.06,North,0,0.0,4.2,62,0.00,,OVC,0.00,WUHU21623XXSP,2013-02-16 09:38:00,
2013-02-16 11:43:00,55.2,42.9,30.06,North,0,4.2,4.4,63,0.00,,OVC,0.00,WUHU21623XXSP,2013-02-16 09:43:00,
2013-02-16 11:48:00,55.2,42.9,30.06,North,0,3.0,5.2,63,0.00,,OVC,0.00,WUHU21623XXSP,2013-02-16 09:48:00,
2013-02-16 11:53:00,55.0,42.8,30.05,NNE,22,4.9,5.9,63,0.00,,OVC,0.00,WUHU21623XXSP,2013-02-16 09:53:00,
2013-02-16 11:58:00,55.0,42.8,30.05,NW,315,1.8,5.9,63,0.00,,OVC,0.00,WUHU21623XXSP,2013-02-16 09:58:00,
2013-02-16 12:03:00,55.2,42.9,30.05,NE,45,1.0,5.9,63,0.00,,BKN,0.00,WUHU21623XXSP,2013-02-16 10:03:00,
2013-02-16 12:08:00,55.9,43.6,30.05,WNW,292,0.0,4.4,63,0.00,,BKN,0.00,WUHU21623XXSP,2013-02-16 10:08:00,
2013-02-16 12:13:00,56.3,43.6,30.05,NE,45,0.0,4.4,62,0.00,,BKN,0.00,WUHU21623XXSP,2013-02-16 10:13:00,
2013-02-16 12:18:00,56.7,43.5,30.04,WNW,292,1.8,3.0,61,0.00,,BKN,0.00,WUHU21623XXSP,2013-02-16 10:18:00,
2013-02-16 12:23:00,56.3,42.7,30.05,NNW,337,0.0,2.4,60,0.00,,BKN,0.00,WUHU21623XXSP,2013-02-16 10:23:00,
2013-02-16 12:28:00,56.1,43.0,30.04,WNW,292,0.0,0.0,61,0.00,,BKN,0.00,WUHU21623XXSP,2013-02-16 10:28:00,
2013-02-16 12:33:00,56.5,43.3,30.04,NNE,22,0.0,2.8,61,0.00,,BKN,0.00,WUHU21623XXSP,2013-02-16 10:33:00,
2013-02-16 12:38:00,56.7,43.1,30.03,NW,315,0.0,2.8,60,0.00,,BKN,0.00,WUHU21623XXSP,2013-02-16 10:38:00,
2013-02-16 12:43:00,56.8,42.7,30.03,NNE,22,0.0,4.7,59,0.00,,BKN,0.00,WUHU21623XXSP,2013-02-16 10:43:00,
2013-02-16 12:48:00,56.8,42.3,30.03,NW,315,0.0,4.7,58,0.00,,BKN,0.00,WUHU21623XXSP,2013-02-16 10:48:00,
2013-02-16 12:53:00,56.5,42.4,30.03,WNW,292,0.0,4.4,59,0.00,,BKN,0.00,WUHU21623XXSP,2013-02-16 10:53:00,
2013-02-16 12:58:00,56.5,42.4,30.03,SSW,202,0.0,4.4,59,0.00,,BKN,0.00,WUHU21623XXSP,2013-02-16 10:58:00,
2013-02-16 13:04:00,55.9,42.3,30.03,South,180,0.0,4.2,60,0.00,,BKN,0.00,WUHU21623XXSP,2013-02-16 11:04:00,
2013-02-16 13:09:00,55.8,42.7,30.03,NW,315,0.0,4.2,61,0.00,,BKN,0.00,WUHU21623XXSP,2013-02-16 11:09:00,
2013-02-16 13:14:00,55.9,43.2,30.03,NNE,22,0.0,2.8,62,0.00,,BKN,0.00,WUHU21623XXSP,2013-02-16 11:14:00,
2013-02-16 13:19:00,55.8,42.7,30.03,SW,225,0.0,0.0,61,0.00,,BKN,0.00,WUHU21623XXSP,2013-02-16 11:19:00,
2013-02-16 13:24:00,55.8,42.7,30.02,SE,135,0.0,1.2,61,0.00,,BKN,0.00,WUHU21623XXSP,2013-02-16 11:24:00,
2013-02-16 13:29:00,55.9,42.3,30.02,SSE,157,0.0,2.2,60,0.00,,BKN,0.00,WUHU21623XXSP,2013-02-16 11:29:00,
2013-02-16 13:34:00,56.1,43.4,30.03,NE,45,0.0,2.2,62,0.00,,BKN,0.00,WUHU21623XXSP,2013-02-16 11:34:00,
2013-02-16 13:39:00,55.9,43.6,30.02,SE,135,0.8,7.4,63,0.00,,BKN,0.00,WUHU21623XXSP,2013-02-16 11:39:00,
2013-02-16 13:44:00,56.1,44.6,30.02,SE,135,0.0,7.4,65,0.00,,BKN,0.00,WUHU21623XXSP,2013-02-16 11:44:00,
2013-02-16 13:49:00,56.8,44.5,30.02,ESE,112,1.8,4.7,63,0.00,,BKN,0.00,WUHU21623XXSP,2013-02-16 11:49:00,
2013-02-16 13:54:00,57.4,44.2,30.02,East,90,0.0,6.9,61,0.00,,BKN,0.00,WUHU21623XXSP,2013-02-16 11:54:00,
2013-02-16 13:59:00,57.4,44.2,30.02,NE,45,2.8,6.9,61,0.00,,BKN,0.00,WUHU21623XXSP,2013-02-16 11:59:00,
2013-02-16 14:04:00,57.4,44.2,30.02,NE,45,3.0,7.6,61,0.00,,BKN,0.00,WUHU21623XXSP,2013-02-16 12:04:00,
2013-02-16 14:09:00,57.7,44.5,30.02,SSE,157,3.7,7.6,61,0.00,,BKN,0.00,WUHU21623XXSP,2013-02-16 12:09:00,
2013-02-16 14:14:00,57.6,43.9,30.01,SW,225,0.0,7.6,60,0.00,,BKN,0.00,WUHU21623XXSP,2013-02-16 12:14:00,
2013-02-16 14:19:00,57.9,43.3,30.02,South,180,8.1,8.1,58,0.00,,BKN,0.00,WUHU21623XXSP,2013-02-16 12:19:00,
2013-02-16 14:24:00,57.7,43.1,30.01,SE,135,3.2,9.8,58,0.00,,BKN,0.00,WUHU21623XXSP,2013-02-16 12:24:00,
2013-02-16 14:29:00,57.6,43.0,30.01,NE,45,0.0,9.8,58,0.00,,BKN,0.00,WUHU21623XXSP,2013-02-16 12:29:00,
2013-02-16 14:34:00,57.4,43.3,30.01,SE,135,0.0,6.9,59,0.00,,BKN,0.00,WUHU21623XXSP,2013-02-16 12:34:00,
2013-02-16 14:39:00,58.1,43.0,30.01,South,180,7.9,7.9,57,0.00,,BKN,0.00,WUHU21623XXSP,2013-02-16 12:39:00,
2013-02-16 14:44:00,57.6,42.1,30.00,SE,135,4.4,13.3,56,0.00,,BKN,0.00,WUHU21623XXSP,2013-02-16 12:44:00,
2013-02-16 14:49:00,56.8,42.3,30.01,East,90,0.0,13.3,58,0.00,,BKN,0.00,WUHU21623XXSP,2013-02-16 12:49:00,
2013-02-16 14:54:00,56.8,42.3,30.01,NW,315,0.0,7.6,58,0.00,,BKN,0.00,WUHU21623XXSP,2013-02-16 12:54:00,
2013-02-16 14:59:00,56.7,41.7,30.00,SW,225,1.4,8.1,57,0.00,,BKN,0.00,WUHU21623XXSP,2013-02-16 12:59:00,
2013-02-16 15:04:00,56.7,41.3,30.00,South,180,7.6,10.8,56,0.00,,BKN,0.00,WUHU21623XXSP,2013-02-16 13:04:00,
2013-02-16 15:09:00,56.7,41.3,30.00,SW,225,0.0,10.8,56,0.00,,BKN,0.00,WUHU21623XXSP,2013-02-16 13:09:00,
2013-02-16 15:14:00,56.7,41.7,30.00,SSE,157,10.1,11.8,57,0.00,,BKN,0.00,WUHU21623XXSP,2013-02-16 13:14:00,
2013-02-16 15:19:00,57.2,42.2,30.00,SE,135,0.0,12.5,57,0.00,,BKN,0.00,WUHU21623XXSP,2013-02-16 13:19:00,
2013-02-16 15:24:00,57.4,41.9,30.00,SSE,157,5.2,15.0,56,0.00,,BKN,0.00,WUHU21623XXSP,2013-02-16 13:24:00,
2013-02-16 15:30:00,57.9,42.4,30.00,SSE,157,4.2,15.0,56,0.00,,BKN,0.00,WUHU21623XXSP,2013-02-16 13:30:00,
2013-02-16 15:35:00,58.1,42.1,30.00,SSE,157,9.8,10.8,55,0.00,,BKN,0.00,WUHU21623XXSP,2013-02-16 13:35:00,
2013-02-16 15:40:00,58.1,42.6,30.00,SSW,202,5.6,10.8,56,0.00,,BKN,0.00,WUHU21623XXSP,2013-02-16 13:40:00,
2013-02-16 15:45:00,58.3,42.3,30.00,SSE,157,3.4,12.5,55,0.00,,BKN,0.00,WUHU21623XXSP,2013-02-16 13:45:00,
2013-02-16 15:50:00,57.7,41.7,30.00,WSW,247,4.7,12.5,55,0.00,,BKN,0.00,WUHU21623XXSP,2013-02-16 13:50:00,
2013-02-16 15:55:00,57.6,42.1,30.00,SW,225,7.9,11.6,56,0.00,,BKN,0.00,WUHU21623XXSP,2013-02-16 13:55:00,
2013-02-16 16:00:00,57.0,41.5,30.00,WNW,292,2.8,11.3,56,0.00,,BKN,0.00,WUHU21623XXSP,2013-02-16 14:00:00,
2013-02-16 16:05:00,56.3,40.9,30.00,SSE,157,8.1,11.3,56,0.00,,BKN,0.00,WUHU21623XXSP,2013-02-16 14:05:00,
2013-02-16 16:10:00,55.9,40.0,30.00,SW,225,1.2,10.6,55,0.00,,BKN,0.00,WUHU21623XXSP,2013-02-16 14:10:00,
2013-02-16 16:15:00,55.9,40.0,30.00,SW,225,2.8,11.1,55,0.00,,BKN,0.00,WUHU21623XXSP,2013-02-16 14:15:00,
2013-02-16 16:20:00,56.3,40.9,30.00,WNW,292,0.0,11.1,56,0.00,,BKN,0.00,WUHU21623XXSP,2013-02-16 14:20:00,
2013-02-16 16:25:00,56.3,40.9,30.00,SSE,157,2.8,5.2,56,0.00,,BKN,0.00,WUHU21623XXSP,2013-02-16 14:25:00,
2013-02-16 16:30:00,56.3,39.4,30.00,SE,135,2.4,5.9,53,0.00,,BKN,0.00,WUHU21623XXSP,2013-02-16 14:30:00,
2013-02-16 16:35:00,56.5,41.1,30.00,SW,225,0.0,5.9,56,0.00,,BKN,0.00,WUHU21623XXSP,2013-02-16 14:35:00,
2013-02-16 16:40:00,56.7,40.8,30.00,SSE,157,0.0,4.0,55,0.00,,BKN,0.00,WUHU21623XXSP,2013-02-16 14:40:00,
2013-02-16 16:45:00,57.0,40.1,30.01,WSW,247,0.0,4.9,53,0.00,,BKN,0.00,WUHU21623XXSP,2013-02-16 14:45:00,
2013-02-16 16:50:00,56.7,39.3,30.01,SW,225,4.2,4.9,52,0.00,,BKN,0.00,WUHU21623XXSP,2013-02-16 14:50:00,
2013-02-16 16:55:00,56.5,39.1,30.00,SSE,157,0.0,4.2,52,0.00,,BKN,0.00,WUHU21623XXSP,2013-02-16 14:55:00,
2013-02-16 17:00:00,56.1,41.6,30.01,North,0,0.0,4.2,58,0.00,,BKN,0.00,WUHU21623XXSP,2013-02-16 15:00:00,
2013-02-16 17:05:00,55.9,42.3,30.01,ENE,67,0.0,2.2,60,0.00,,BKN,0.00,WUHU21623XXSP,2013-02-16 15:05:00,
2013-02-16 17:10:00,55.6,42.5,30.01,NE,45,5.2,6.6,61,0.00,,BKN,0.00,WUHU21623XXSP,2013-02-16 15:10:00,
2013-02-16 17:15:00,55.2,42.9,30.00,ENE,67,0.0,6.6,63,0.00,,BKN,0.00,WUHU21623XXSP,2013-02-16 15:15:00,
2013-02-16 17:20:00,55.0,43.2,30.01,North,0,1.4,10.1,64,0.00,,BKN,0.00,WUHU21623XXSP,2013-02-16 15:20:00,
2013-02-16 17:25:00,54.3,42.5,30.01,NNE,22,6.9,11.8,64,0.00,,BKN,0.00,WUHU21623XXSP,2013-02-16 15:25:00,
2013-02-16 17:30:00,54.0,42.6,30.01,NE,45,5.6,11.8,65,0.00,,BKN,0.00,WUHU21623XXSP,2013-02-16 15:30:00,
2013-02-16 17:35:00,53.8,42.8,30.01,NNW,337,5.2,11.6,66,0.00,,BKN,0.00,WUHU21623XXSP,2013-02-16 15:35:00,
2013-02-16 17:40:00,53.2,42.6,30.01,NNE,22,6.9,11.6,67,0.00,,BKN,0.00,WUHU21623XXSP,2013-02-16 15:40:00,
2013-02-16 17:45:00,53.2,43.0,30.01,NE,45,0.0,11.6,68,0.00,,BKN,0.00,WUHU21623XXSP,2013-02-16 15:45:00,
2013-02-16 17:50:00,53.1,42.5,30.01,North,0,2.2,7.4,67,0.00,,BKN,0.00,WUHU21623XXSP,2013-02-16 15:50:00,
2013-02-16 17:55:00,53.1,42.5,30.01,NW,315,0.0,7.2,67,0.00,,BKN,0.00,WUHU21623XXSP,2013-02-16 15:55:00,
2013-02-16 17:57:00,53.1,42.5,30.01,North,0,1.0,5.4,67,0.00,,BKN,0.00,WUHU21623XXSP,2013-02-16 15:57:00,
2013-02-16 17:58:00,53.1,42.5,30.01,NNW,337,0.0,5.4,67,0.00,,BKN,0.00,WUHU21623XXSP,2013-02-16 15:58:00,
2013-02-16 18:27:00,53.1,42.2,30.01,North,0,9.8,9.8,66,0.00,,BKN,0.00,WUHU21623XXSP,2013-02-16 16:27:00,
2013-02-16 18:58:00,52.3,42.9,30.01,NNE,22,6.4,6.4,70,0.00,,OVC,0.00,WUHU21623XXSP,2013-02-16 16:58:00,
2013-02-16 19:03:00,52.2,43.2,30.02,NNE,22,2.4,8.1,71,0.00,,OVC,0.00,WUHU21623XXSP,2013-02-16 17:03:00,
2013-02-16 19:08:00,52.2,43.2,30.02,NNW,337,2.2,9.4,71,0.00,,OVC,0.00,WUHU21623XXSP,2013-02-16 17:08:00,
2013-02-16 19:09:00,52.2,43.2,30.02,NE,45,3.0,9.4,71,0.00,,OVC,0.00,WUHU21623XXSP,2013-02-16 17:09:00,
2013-02-16 19:10:00,52.2,43.2,30.01,NNE,22,3.7,9.4,71,0.00,,OVC,0.00,WUHU21623XXSP,2013-02-16 17:10:00,
2013-02-16 19:27:00,52.0,43.4,30.02,NNE,23,5.4,5.4,72,0.00,,OVC,0.00,WUHU21623XXSP,2013-02-16 17:27:00,
2013-02-16 19:35:00,51.6,43.0,30.02,North,0,5.9,9.1,72,0.00,,OVC,0.00,WUHU21623XXSP,2013-02-16 17:35:00,
2013-02-16 19:40:00,51.4,43.5,30.02,NNE,22,2.2,10.6,74,0.00,,OVC,0.00,WUHU21623XXSP,2013-02-16 17:40:00,
2013-02-16 19:45:00,51.4,43.5,30.02,NNE,22,7.4,10.6,74,0.00,,OVC,0.00,WUHU21623XXSP,2013-02-16 17:45:00,
2013-02-16 19:50:00,51.3,43.7,30.02,North,0,4.0,9.1,75,0.00,,OVC,0.00,WUHU21623XXSP,2013-02-16 17:50:00,
2013-02-16 19:55:00,51.3,43.7,30.02,NNE,22,4.2,9.1,75,0.00,,OVC,0.00,WUHU21623XXSP,2013-02-16 17:55:00,
2013-02-16 20:00:00,51.3,44.1,30.02,NE,45,3.7,8.1,76,0.00,,OVC,0.00,WUHU21623XXSP,2013-02-16 18:00:00,
2013-02-16 20:05:00,51.1,44.2,30.02,North,0,0.0,10.1,77,0.00,,OVC,0.00,WUHU21623XXSP,2013-02-16 18:05:00,
2013-02-16 20:10:00,50.9,44.3,30.02,North,0,5.9,10.1,78,0.00,,OVC,0.00,WUHU21623XXSP,2013-02-16 18:10:00,
2013-02-16 20:15:00,50.9,44.3,30.02,NW,315,1.4,7.4,78,0.00,-RA,,0.00,WUHU21623XXSP,2013-02-16 18:15:00,
2013-02-16 20:20:00,50.7,44.5,30.02,North,0,0.0,6.9,79,0.00,-RA,,0.00,WUHU21623XXSP,2013-02-16 18:20:00,
2013-02-16 20:25:00,50.7,45.1,30.02,NNW,337,0.0,5.9,81,0.00,-RA,,0.00,WUHU21623XXSP,2013-02-16 18:25:00,
2013-02-16 20:30:00,50.5,44.9,30.02,NNW,337,3.2,8.4,81,0.00,-RA,,0.00,WUHU21623XXSP,2013-02-16 18:30:00,
2013-02-16 20:35:00,50.4,45.1,30.02,North,0,6.6,8.4,82,0.01,-RA,,0.01,WUHU21623XXSP,2013-02-16 18:35:00,
2013-02-16 20:40:00,50.2,45.2,30.02,North,0,2.4,10.6,83,0.01,-RA,,0.01,WUHU21623XXSP,2013-02-16 18:40:00,
2013-02-16 20:45:00,50.2,45.2,30.02,NNW,337,4.0,10.6,83,0.02,-RA,,0.02,WUHU21623XXSP,2013-02-16 18:45:00,
2013-02-16 20:50:00,50.0,45.4,30.02,NNW,337,2.2,8.6,84,0.02,-RA,,0.02,WUHU21623XXSP,2013-02-16 18:50:00,
2013-02-16 20:55:00,49.6,45.3,30.02,NNW,337,2.4,11.6,85,0.02,-RA,,0.02,WUHU21623XXSP,2013-02-16 18:55:00,
2013-02-16 21:00:00,49.6,45.3,30.02,North,0,7.4,11.6,85,0.02,-RA,,0.02,WUHU21623XXSP,2013-02-16 19:00:00,
2013-02-16 21:05:00,49.5,45.2,30.02,North,0,4.2,8.9,85,0.02,-RA,,0.02,WUHU21623XXSP,2013-02-16 19:05:00,
2013-02-16 21:10:00,49.3,45.3,30.02,North,0,2.8,8.9,86,0.02,-RA,,0.02,WUHU21623XXSP,2013-02-16 19:10:00,
2013-02-16 21:15:00,49.1,45.1,30.01,North,0,4.9,8.6,86,0.02,-RA,,0.02,WUHU21623XXSP,2013-02-16 19:15:00,
2013-02-16 21:20:00,48.9,45.2,30.02,ENE,67,0.0,7.2,87,0.02,-RA,,0.02,WUHU21623XXSP,2013-02-16 19:20:00,
2013-02-16 21:25:00,48.9,45.5,30.02,North,0,2.2,7.2,88,0.02,-RA,,0.02,WUHU21623XXSP,2013-02-16 19:25:00,
2013-02-16 21:30:00,48.9,45.5,30.02,NNE,22,1.8,6.6,88,0.02,-RA,,0.02,WUHU21623XXSP,2013-02-16 19:30:00,
2013-02-16 21:35:00,48.7,45.6,30.02,NNW,337,5.6,10.6,89,0.01,-RA,,0.02,WUHU21623XXSP,2013-02-16 19:35:00,
2013-02-16 21:40:00,48.6,45.5,30.02,NNE,22,2.4,12.3,89,0.01,-RA,,0.02,WUHU21623XXSP,2013-02-16 19:40:00,
2013-02-16 21:45:00,48.7,45.6,30.02,NNE,22,2.4,12.3,89,0.00,-RA,,0.02,WUHU21623XXSP,2013-02-16 19:45:00,
2013-02-16 21:50:00,48.7,45.6,30.02,NE,45,2.4,9.4,89,0.00,-RA,,0.02,WUHU21623XXSP,2013-02-16 19:50:00,
2013-02-16 21:55:00,48.7,45.9,30.02,North,0,1.2,9.4,90,0.00,-RA,,0.02,WUHU21623XXSP,2013-02-16 19:55:00,
2013-02-16 22:00:00,48.7,45.9,30.02,ENE,67,0.0,6.6,90,0.00,-RA,,0.02,WUHU21623XXSP,2013-02-16 20:00:00,
2013-02-16 22:05:00,48.9,46.1,30.02,NE,45,4.0,8.1,90,0.00,-RA,,0.02,WUHU21623XXSP,2013-02-16 20:05:00,
2013-02-16 22:10:00,48.9,46.1,30.01,NNE,22,3.0,8.1,90,0.00,-RA,,0.02,WUHU21623XXSP,2013-02-16 20:10:00,
2013-02-16 22:15:00,49.1,46.0,30.01,North,0,0.0,8.9,89,0.00,-RA,,0.02,WUHU21623XXSP,2013-02-16 20:15:00,
2013-02-16 22:20:00,49.1,46.0,30.01,NNE,22,0.0,8.9,89,0.01,-RA,,0.04,WUHU21623XXSP,2013-02-16 20:20:00,
2013-02-16 22:25:00,49.1,46.0,30.01,NE,45,4.2,10.1,89,0.01,-RA,,0.04,WUHU21623XXSP,2013-02-16 20:25:00,
2013-02-16 22:30:00,49.3,46.2,30.01,ENE,67,11.3,11.3,89,0.01,-RA,,0.04,WUHU21623XXSP,2013-02-16 20:30:00,
2013-02-16 22:35:00,49.1,46.0,30.01,ENE,67,1.8,11.3,89,0.01,-RA,,0.04,WUHU21623XXSP,2013-02-16 20:35:00,
2013-02-16 22:40:00,49.3,46.2,30.01,NNW,337,0.0,7.9,89,0.01,-RA,,0.04,WUHU21623XXSP,2013-02-16 20:40:00,
2013-02-16 22:45:00,49.3,46.2,30.01,NE,45,0.0,8.9,89,0.01,-RA,,0.04,WUHU21623XXSP,2013-02-16 20:45:00,
2013-02-16 22:50:00,49.3,46.2,30.01,NNW,337,0.0,8.9,89,0.01,-RA,,0.04,WUHU21623XXSP,2013-02-16 20:50:00,
2013-02-16 22:55:00,49.3,45.9,30.01,North,0,3.4,9.6,88,0.01,-RA,,0.04,WUHU21623XXSP,2013-02-16 20:55:00,
2013-02-16 23:00:00,49.3,45.9,30.01,North,0,1.2,9.6,88,0.01,-RA,,0.04,WUHU21623XXSP,2013-02-16 21:00:00,
2013-02-16 23:05:00,49.3,45.9,30.01,NE,45,4.0,8.1,88,0.01,-RA,,0.04,WUHU21623XXSP,2013-02-16 21:05:00,
2013-02-16 23:10:00,49.3,45.9,30.01,NNE,22,2.2,6.6,88,0.01,-RA,,0.04,WUHU21623XXSP,2013-02-16 21:10:00,
2013-02-16 23:15:00,49.1,45.7,30.01,NE,45,8.6,8.9,88,0.02,-RA,,0.05,WUHU21623XXSP,2013-02-16 21:15:00,
2013-02-16 23:20:00,49.1,45.7,30.01,NNE,22,6.6,8.9,88,0.01,-RA,,0.05,WUHU21623XXSP,2013-02-16 21:20:00,
2013-02-16 23:25:00,48.9,45.5,30.01,NNE,22,4.7,9.8,88,0.01,-RA,,0.05,WUHU21623XXSP,2013-02-16 21:25:00,
2013-02-16 23:30:00,48.9,45.5,30.01,North,0,2.8,10.8,88,0.02,-RA,,0.06,WUHU21623XXSP,2013-02-16 21:30:00,
2013-02-16 23:35:00,48.9,45.5,30.01,NNE,22,0.0,10.8,88,0.02,-RA,,0.06,WUHU21623XXSP,2013-02-16 21:35:00,
2013-02-16 23:40:00,48.7,45.3,30.01,NE,45,0.0,10.1,88,0.02,-RA,,0.06,WUHU21623XXSP,2013-02-16 21:40:00,
2013-02-16 23:45:00,48.7,45.3,30.01,NNE,22,0.0,10.1,88,0.04,-RA,,0.07,WUHU21623XXSP,2013-02-16 21:45:00,